Saint Barthelemy, St. Barthelemy

9:00 AM AST on July 24, 2014 (GMT -0400)
ISTBARTH2 Elev 633 ft | 17.90 °N, 62.81 °W | Change Station

Current weather conditions updated 1 minute ago

Partly Cloudy
Partly Cloudy
90.1 °F
Feels Like 109 °F
N
4.7
Wind Variable Wind from ENE
Gusts 8.5 mph

Today is forecast to be Much Cooler than yesterday. Isolated thunderstorms.

Today
High -- | Low -- °F
--% Chance of Precip.
Yesterday
High -- | Low -- °F
Precip. -- in
5:47 AM 6:48 PM
Waning Crescent, 5% visible
Pressure 30.04 in
Visibility 6.2 miles
Clouds Few 2100 ft
Heat Index 109 °F
Dew Point 81 °F
Humidity 74%
Rainfall 0.00 in
Snow Depth Not available.
UV 0.0 out of 12
Pollen Not available.
Air Quality Not available.
Flu Activity Not available.
METAR TNCM 241200Z 09010KT 060V120 9999 FEW021TCU 29/22 Q1017 A3005 N OSIG

More Conditions Fewer Conditions

Pressure 30.04 in
Visibility 6.2 miles
Clouds Few 2100 ft
Heat Index 109 °F
Dew Point 81 °F
Humidity 74%
Rainfall 0.00 in
Snow Depth Not available.
UV 0.0 out of 12
Pollen Not available.
Air Quality Not available.
Flu Activity Not available.
METAR TNCM 241200Z 09010KT 060V120 9999 FEW021TCU 29/22 Q1017 A3005 N OSIG

More Conditions Fewer Conditions

10-Day Weather Forecast

Almanac

Astronomy

Jul. 24, 2014 Rise Set
Actual Time 5:47 AM AST 6:48 PM AST
Civil Twilight 5:23 AM AST 7:11 PM AST
Nautical Twilight 4:56 AM AST 7:39 PM AST
Astronomical Twilight 4:27 AM AST 8:07 PM AST
Moon 3:49 AM AST 5:03 PM AST
Length of Visible Light 13h 47m
Length of Day
13h 00m
Tomorrow will be 0m 39s shorter.
Waning Crescent, 5% of the Moon is Illuminated
Today
Waning Crescent
Jul 26
New
Aug 3
First Quarter
Aug 10
Full
Aug 17
Last Quarter

Community

WunderPhotos

Upload Photos

1,736,993 photos uploaded!

Nearby

Snow Depth

Not available.

Earthquake Activity

City Distance Mag. Time & Date
No recent earthquake activity has been reported nearby.
Minimum magnitude displayed is 2.5.

Coastal Water Temperatures

Place Temperature
No Stations Reporting

Nearby Weather Stations

Station Location Temp. Heat Index Dew Point Humidity Wind Precip. Elev Updated Type
St Barthelemy 90.1 °F 109 °F 81 °F 74% ENE  at  4.7 mph 0.00 in / hr 633 ft 8:59 AM AST Normal
Cole Bay, St.Maarten, Cole Bay 83.3 °F 89 °F 72 °F 70% SW  at  5.0 mph 0.00 in / hr 171 ft 9:00 AM AST Normal
Concordia, Saint-Martin 84.4 °F 91 °F 73 °F 68% ESE  at  8.1 mph 0.00 in / hr 85 ft 9:00 AM AST Rapid Fire

Show More Stations Show Fewer Stations